createdAt,value
2023-01-07T00:00:55.170Z,20
2023-01-07T00:05:55.144Z,17
2023-01-07T00:10:55.272Z,21
2023-01-07T00:15:55.406Z,20
2023-01-07T00:20:55.688Z,21
2023-01-07T00:25:55.695Z,21
2023-01-07T00:30:55.872Z,21
2023-01-07T00:35:55.201Z,19
2023-01-07T00:40:55.210Z,19
2023-01-07T00:45:55.231Z,19
2023-01-07T00:50:55.353Z,19
2023-01-07T00:55:55.745Z,21
2023-01-07T01:00:55.399Z,19
2023-01-07T01:05:55.253Z,20
2023-01-07T01:10:55.294Z,18
2023-01-07T01:15:55.313Z,19
2023-01-07T01:20:55.329Z,17
2023-01-07T01:25:55.277Z,19
2023-01-07T01:30:55.411Z,18
2023-01-07T01:35:55.305Z,19
2023-01-07T01:40:55.856Z,18
2023-01-07T01:45:55.319Z,20
2023-01-07T01:50:55.452Z,20
2023-01-07T01:55:55.936Z,18
2023-01-07T02:00:56.005Z,19
2023-01-07T02:05:55.352Z,17
2023-01-07T02:10:55.486Z,16
2023-01-07T02:15:55.767Z,14
2023-01-07T02:20:55.387Z,15
2023-01-07T02:25:55.920Z,14
2023-01-07T02:30:55.520Z,14
2023-01-07T02:35:55.407Z,12
2023-01-07T02:40:55.412Z,13
2023-01-07T02:45:55.608Z,14
2023-01-07T02:50:55.591Z,13
2023-01-07T02:55:55.447Z,13
2023-01-07T03:00:55.542Z,11
2023-01-07T03:05:55.459Z,12
2023-01-07T03:10:56.120Z,13
2023-01-07T03:15:56.146Z,14
2023-01-07T03:20:55.493Z,14
2023-01-07T03:25:55.507Z,13
2023-01-07T03:30:55.631Z,13
2023-01-07T03:50:56.473Z,13
2023-01-07T03:55:56.205Z,14
2023-01-07T04:00:55.706Z,13
2023-01-07T04:05:55.571Z,13
2023-01-07T04:10:56.215Z,13
2023-01-07T04:15:56.109Z,13
2023-01-07T04:20:55.602Z,13
2023-01-07T04:25:55.607Z,12
2023-01-07T04:30:56.323Z,12
2023-01-07T04:35:56.146Z,11
2023-01-07T04:40:55.658Z,12
2023-01-07T05:00:56.648Z,12
2023-01-07T05:05:55.674Z,13
2023-01-07T05:10:56.191Z,12
2023-01-07T05:15:55.699Z,12
2023-01-07T05:20:55.839Z,12
2023-01-07T05:25:55.711Z,12
2023-01-07T05:30:55.780Z,12
2023-01-07T05:35:56.241Z,12
2023-01-07T05:40:55.869Z,11
2023-01-07T05:45:55.812Z,11
2023-01-07T05:50:55.758Z,12
2023-01-07T06:10:56.786Z,12
2023-01-07T06:15:56.506Z,13
2023-01-07T06:20:55.810Z,12
2023-01-07T06:25:56.341Z,14
2023-01-07T06:30:56.137Z,14
2023-01-07T06:35:55.833Z,12
2023-01-07T06:40:55.862Z,12
2023-01-07T06:45:56.593Z,13
2023-01-07T06:50:56.015Z,12
2023-01-07T06:55:55.876Z,13
2023-01-07T07:00:55.984Z,13
2023-01-07T07:05:55.895Z,13
2023-01-07T07:10:56.248Z,13
2023-01-07T07:15:55.967Z,13
2023-01-07T07:30:56.914Z,13
2023-01-07T07:40:56.105Z,13
2023-01-07T07:45:55.998Z,12
2023-01-07T07:50:56.088Z,13
2023-01-07T07:55:55.975Z,13
2023-01-07T08:00:56.102Z,14
2023-01-07T08:05:55.994Z,13
2023-01-07T08:10:56.649Z,12
2023-01-07T08:15:56.081Z,14
2023-01-07T08:20:56.038Z,13
2023-01-07T08:25:56.067Z,15
2023-01-07T08:30:56.219Z,14
2023-01-07T08:35:56.053Z,12
2023-01-07T08:40:56.062Z,13
2023-01-07T08:45:56.079Z,13
2023-01-07T08:50:56.833Z,13
2023-01-07T08:55:56.605Z,14
2023-01-07T09:00:56.222Z,12
2023-01-07T09:05:56.231Z,12
2023-01-07T09:10:56.805Z,11
2023-01-07T09:15:56.681Z,14
2023-01-07T09:20:56.835Z,13
2023-01-07T09:25:56.135Z,13
2023-01-07T09:30:57.053Z,12
2023-01-07T09:35:56.840Z,12
2023-01-07T09:40:56.169Z,14
2023-01-07T09:45:56.225Z,13
2023-01-07T09:50:56.832Z,12
2023-01-07T09:56:10.173Z,12
2023-01-07T10:00:56.240Z,13
2023-01-07T10:05:56.206Z,12
2023-01-07T10:10:56.848Z,15
2023-01-07T10:15:56.241Z,13
2023-01-07T10:20:56.239Z,14
2023-01-07T10:25:56.316Z,13
2023-01-07T10:30:56.899Z,14
2023-01-07T10:35:57.303Z,13
2023-01-07T10:40:56.782Z,13
2023-01-07T10:45:56.373Z,12
2023-01-07T10:50:56.943Z,12
2023-01-07T10:55:56.297Z,12
2023-01-07T11:00:56.413Z,13
2023-01-07T11:05:56.312Z,10
2023-01-07T11:10:58.710Z,14
2023-01-07T11:15:56.335Z,11
2023-01-07T11:20:56.470Z,11
2023-01-07T11:25:56.350Z,10
2023-01-07T11:30:56.483Z,12
2023-01-07T11:35:56.899Z,14
2023-01-07T11:55:57.409Z,14
2023-01-07T12:00:56.447Z,9
2023-01-07T12:05:56.935Z,9
2023-01-07T12:10:56.563Z,9
2023-01-07T12:15:56.571Z,9
2023-01-07T12:20:56.961Z,8
2023-01-07T12:25:57.012Z,8
2023-01-07T12:31:02.074Z,9
2023-01-07T12:35:56.478Z,8
2023-01-07T12:40:56.986Z,9
2023-01-07T12:45:57.068Z,8
2023-01-07T12:50:56.645Z,7
2023-01-07T12:55:56.509Z,8
2023-01-07T13:00:57.116Z,8
2023-01-07T13:05:57.040Z,8
2023-01-07T13:10:56.654Z,8
2023-01-07T13:15:56.585Z,7
2023-01-07T13:20:57.422Z,7
2023-01-07T13:25:56.568Z,7
2023-01-07T13:30:57.263Z,9
2023-01-07T13:35:56.690Z,7
2023-01-07T13:55:58.584Z,7
2023-01-07T14:00:56.924Z,7
2023-01-07T14:05:57.195Z,7
2023-01-07T14:10:56.643Z,8
2023-01-07T14:15:57.343Z,8
2023-01-07T14:20:57.183Z,7
2023-01-07T14:25:56.675Z,6
2023-01-07T14:45:57.716Z,6
2023-01-07T14:50:56.885Z,7
2023-01-07T15:05:57.697Z,7
2023-01-07T15:10:57.304Z,6
2023-01-07T15:15:56.897Z,7
2023-01-07T15:20:56.774Z,8
2023-01-07T15:25:56.970Z,9
2023-01-07T15:30:57.350Z,8
2023-01-07T15:45:57.871Z,8
2023-01-07T15:50:56.826Z,13
2023-01-07T15:55:56.837Z,10
2023-01-07T16:20:57.960Z,10
2023-01-07T16:25:57.413Z,8
2023-01-07T16:30:57.485Z,9
2023-01-07T16:35:56.912Z,9
2023-01-07T16:40:57.037Z,9
2023-01-07T16:45:57.524Z,10
2023-01-07T16:50:56.931Z,11
2023-01-07T16:55:57.464Z,11
2023-01-07T17:00:58.034Z,13
2023-01-07T17:05:57.494Z,9
2023-01-07T17:10:56.976Z,12
2023-01-07T17:15:57.041Z,10
2023-01-07T17:20:57.627Z,14
2023-01-07T17:25:57.505Z,16
2023-01-07T17:30:57.618Z,15
2023-01-07T17:35:57.562Z,16
2023-01-07T17:40:57.161Z,15
2023-01-07T17:45:57.694Z,17
2023-01-07T17:50:57.086Z,14
2023-01-07T17:55:57.056Z,14
2023-01-07T18:00:57.228Z,16
2023-01-07T18:05:57.585Z,21
2023-01-07T18:10:57.156Z,16
2023-01-07T18:15:57.239Z,13
2023-01-07T18:20:57.233Z,12
2023-01-07T18:25:57.614Z,12
2023-01-07T18:30:57.122Z,12
2023-01-07T18:35:57.629Z,10
2023-01-07T18:40:57.294Z,10
2023-01-07T18:45:57.795Z,12
2023-01-07T18:50:57.148Z,15
2023-01-07T18:55:57.171Z,14
2023-01-07T19:00:57.409Z,12
2023-01-07T19:05:57.186Z,12
2023-01-07T19:10:57.740Z,13
2023-01-07T19:15:57.722Z,15
2023-01-07T19:20:57.328Z,13
2023-01-07T19:25:57.363Z,11
2023-01-07T19:30:57.224Z,18
2023-01-07T19:35:57.225Z,14
2023-01-07T19:40:57.642Z,15
2023-01-07T19:45:57.344Z,16
2023-01-07T19:50:57.774Z,16
2023-01-07T19:55:57.812Z,18
2023-01-07T20:00:57.492Z,18
2023-01-07T20:05:57.786Z,16
2023-01-07T20:10:57.291Z,16
2023-01-07T20:15:57.304Z,16
2023-01-07T20:20:57.435Z,15
2023-01-07T20:25:57.334Z,16
2023-01-07T20:40:58.289Z,16
2023-01-07T20:45:57.945Z,13
2023-01-07T20:50:57.511Z,13
2023-01-07T20:55:57.387Z,15
2023-01-07T21:00:57.589Z,13
2023-01-07T21:05:57.386Z,12
2023-01-07T21:10:57.403Z,13
2023-01-07T21:15:57.931Z,12
2023-01-07T21:20:57.551Z,13
2023-01-07T21:25:57.428Z,12
2023-01-07T21:30:57.439Z,14
2023-01-07T21:35:57.517Z,16
2023-01-07T21:40:57.574Z,16
2023-01-07T21:45:57.476Z,18
2023-01-07T21:50:57.991Z,16
2023-01-07T21:55:57.489Z,15
2023-01-07T22:00:57.676Z,14
2023-01-07T22:05:58.005Z,15
2023-01-07T22:20:58.396Z,15
2023-01-07T22:30:57.549Z,13
2023-01-07T22:35:57.560Z,13
2023-01-07T22:40:58.200Z,15
2023-01-07T22:45:57.612Z,13
2023-01-07T22:50:57.581Z,14
2023-01-07T22:55:57.600Z,13
2023-01-07T23:00:57.797Z,13
2023-01-07T23:05:58.109Z,14
2023-01-07T23:10:57.612Z,13
2023-01-07T23:30:58.592Z,13
2023-01-07T23:35:58.157Z,13
2023-01-07T23:40:58.240Z,12
2023-01-07T23:45:57.724Z,13
2023-01-07T23:50:57.809Z,13
2023-01-07T23:55:58.207Z,13
